Time;durP1;ratioP1;P1;durP2;ratioP2;P2;SDS_P1;SDS_P2;PMS_P1;PMS_P2;Temp;Humidity;BMP_temperature;BMP_pressure;BME280_temperature;BME280_humidity;BME280_pressure;Samples;Min_cycle;Max_cycle;Signal;HPM_P1;HPM_P2
2021/08/02 08:34:29;;;;;;;6.30;4.65;;;;;;;;;;2098935;27;99890;-20
2021/08/02 08:35:30;;;;;;;9.05;4.88;;;;;;;;;;2097968;27;99812;-20
2021/08/02 08:36:31;;;;;;;;;;;;;;;;;;2097668;27;99841;-23
2021/08/02 08:37:32;;;;;;;9.48;5.00;;;;;;;;;;2097909;27;99821;-20
2021/08/02 08:38:33;;;;;;;;;;;;;;;;;;2098410;27;99819;-19
2021/08/02 08:39:34;;;;;;;9.38;4.53;;;;;;;;;;2098173;27;99848;-21
2021/08/02 08:40:36;;;;;;;7.65;4.32;;;;;;;;;;2088673;27;99998;-24
2021/08/02 08:41:37;;;;;;;6.53;4.97;;;;;;;;;;2089155;27;99836;-22
2021/08/02 08:42:40;;;;;;;9.60;4.75;;;;;;;;;;2088724;27;100006;-23
2021/08/02 08:43:42;;;;;;;8.60;4.72;;;;;;;;;;2081286;27;99940;-24
2021/08/02 08:44:43;;;;;;;9.20;4.45;;;;;;;;;;2080550;28;99970;-22
2021/08/02 08:45:45;;;;;;;6.38;4.43;;;;;;;;;;2072470;27;99938;-23
2021/08/02 08:46:46;;;;;;;7.82;4.35;;;;;;;;;;2089061;27;100314;-25
2021/08/02 08:47:48;;;;;;;;;;;;;;;;;;2089125;27;99950;-23
2021/08/02 08:48:50;;;;;;;8.48;4.80;;;;;;;;;;2080883;27;99914;-23
2021/08/02 08:49:52;;;;;;;7.65;4.50;;;;;;;;;;2088788;27;100032;-23
2021/08/02 08:50:53;;;;;;;6.07;4.03;;;;;;;;;;2098060;27;100036;-22
2021/08/02 08:51:55;;;;;;;9.98;4.47;;;;;;;;;;2080616;28;100006;-24
2021/08/02 08:52:57;;;;;;;6.85;4.53;;;;;;;;;;2080697;27;99981;-24
2021/08/02 08:53:58;;;;;;;6.63;4.00;;;;;;;;;;2097709;27;100015;-25
2021/08/02 08:54:59;;;;;;;;;;;;;;;;;;2089199;27;100025;-21
2021/08/02 08:56:01;;;;;;;7.65;4.70;;;;;;;;;;2080406;28;100094;-22
2021/08/02 08:57:02;;;;;;;7.07;3.95;;;;;;;;;;2072187;28;100081;-22
2021/08/02 08:58:04;;;;;;;9.05;4.53;;;;;;;;;;2081050;27;100059;-21
2021/08/02 08:59:08;;;;;;;6.15;4.15;;;;;;;;;;2097924;27;99943;-24
2021/08/02 09:00:25;;;;;;;5.82;4.13;;;;;;;;;;2097672;27;100749;-22
2021/08/02 09:01:28;;;;;;;6.63;4.20;;;;;;;;;;2088593;27;100064;-22
2021/08/02 09:02:29;;;;;;;5.13;4.50;;;;;;;;;;2080213;27;99949;-26
2021/08/02 09:03:31;;;;;;;8.30;4.22;;;;;;;;;;2088451;27;99941;-22
2021/08/02 09:04:31;;;;;;;7.25;4.43;;;;;;;;;;2088718;27;100050;-22
2021/08/02 09:05:33;;;;;;;;;;;;;;;;;;2089176;27;99970;-21
2021/08/02 09:06:49;;;;;;;6.68;4.20;;;;;;;;;;2080486;28;99951;-21
2021/08/02 09:07:53;;;;;;;5.97;4.20;;;;;;;;;;2084736;27;99979;-24
2021/08/02 09:08:54;;;;;;;7.47;4.30;;;;;;;;;;2089020;27;99936;-24
2021/08/02 09:09:54;;;;;;;;;;;;;;;;;;2089179;27;100233;-25
2021/08/02 09:11:01;;;;;;;6.87;4.90;;;;;;;;;;2098329;27;100222;-22
2021/08/02 09:12:14;;;;;;;9.25;4.93;;;;;;;;;;2088619;27;99944;-21
2021/08/02 09:13:15;;;;;;;10.02;6.55;;;;;;;;;;2090572;27;100038;-20
2021/08/02 09:14:17;;;;;;;;;;;;;;;;;;2089287;27;100007;-23
2021/08/02 09:15:35;;;;;;;8.57;5.03;;;;;;;;;;2088996;27;99900;-22
2021/08/02 09:16:37;;;;;;;6.80;4.05;;;;;;;;;;2097581;27;99870;-20
2021/08/02 09:17:39;;;;;;;8.00;4.80;;;;;;;;;;2088595;27;99947;-23
2021/08/02 09:18:44;;;;;;;7.85;4.68;;;;;;;;;;2088616;27;99917;-21
2021/08/02 09:19:45;;;;;;;5.70;4.28;;;;;;;;;;2097994;27;100198;-24
2021/08/02 09:20:46;;;;;;;;;;;;;;;;;;2097763;27;100000;-21
2021/08/02 09:21:50;;;;;;;9.07;4.10;;;;;;;;;;2088466;27;99960;-22
2021/08/02 09:22:53;;;;;;;6.20;4.25;;;;;;;;;;2089034;27;101230;-22
2021/08/02 09:23:57;;;;;;;6.45;4.38;;;;;;;;;;2097733;27;99961;-23
2021/08/02 09:25:27;;;;;;;6.50;4.70;;;;;;;;;;2097585;27;99966;-21
2021/08/02 09:26:33;;;;;;;5.25;3.80;;;;;;;;;;2079836;27;100088;-22
2021/08/02 09:27:35;;;;;;;5.82;4.32;;;;;;;;;;2097671;27;99814;-21
2021/08/02 09:28:36;;;;;;;5.93;4.18;;;;;;;;;;2097660;27;99925;-24
2021/08/02 09:29:37;;;;;;;5.82;4.10;;;;;;;;;;2097596;27;99842;-22
2021/08/02 09:30:38;;;;;;;;;;;;;;;;;;2097378;27;99840;-21
2021/08/02 09:31:46;;;;;;;5.18;4.18;;;;;;;;;;2087966;27;99879;-22
2021/08/02 09:32:56;;;;;;;6.15;4.10;;;;;;;;;;2089242;27;100013;-22
2021/08/02 09:34:02;;;;;;;6.72;3.95;;;;;;;;;;2087693;27;100306;-25
2021/08/02 09:35:04;;;;;;;6.72;4.45;;;;;;;;;;2085399;27;100230;-23
2021/08/02 09:36:04;;;;;;;8.40;4.63;;;;;;;;;;2083365;27;99990;-22
2021/08/02 09:37:05;;;;;;;;;;;;;;;;;;2091965;27;99956;-21
2021/08/02 09:38:11;;;;;;;5.65;4.32;;;;;;;;;;2083215;28;100202;-21
2021/08/02 09:39:16;;;;;;;5.43;3.97;;;;;;;;;;2083810;27;100274;-24
2021/08/02 09:40:17;;;;;;;5.38;4.10;;;;;;;;;;2092190;27;99771;-23
2021/08/02 09:41:20;;;;;;;5.88;4.22;;;;;;;;;;2091882;27;99862;-20
2021/08/02 09:42:24;;;;;;;5.13;3.60;;;;;;;;;;2092011;27;99935;-21
2021/08/02 09:43:30;;;;;;;4.32;3.47;;;;;;;;;;2091668;27;100044;-24
2021/08/02 09:44:32;;;;;;;6.07;4.00;;;;;;;;;;2091864;27;100020;-20
2021/08/02 09:45:48;;;;;;;4.93;4.00;;;;;;;;;;2091705;27;100088;-21
2021/08/02 09:46:56;;;;;;;4.75;4.35;;;;;;;;;;2082682;28;100229;-20
2021/08/02 09:47:57;;;;;;;6.03;3.70;;;;;;;;;;2084144;27;99966;-21
2021/08/02 09:49:03;;;;;;;;;;;;;;;;;;2092178;27;99822;-22
2021/08/02 09:50:04;;;;;;;6.25;3.92;;;;;;;;;;2091524;27;99956;-22
2021/08/02 09:51:14;;;;;;;5.47;3.75;;;;;;;;;;2083101;28;100011;-19
2021/08/02 09:52:15;;;;;;;6.18;4.00;;;;;;;;;;2084123;27;100008;-21
2021/08/02 09:53:18;;;;;;;4.35;3.72;;;;;;;;;;2082430;28;100008;-19
2021/08/02 09:54:28;;;;;;;5.15;3.63;;;;;;;;;;2082720;27;99999;-22
2021/08/02 09:55:29;;;;;;;4.93;3.65;;;;;;;;;;2091510;27;99900;-23
2021/08/02 09:56:30;;;;;;;;;;;;;;;;;;2074692;28;99875;-24
2021/08/02 09:57:31;;;;;;;;;;;;;;;;;;2075042;27;100014;-21
2021/08/02 09:58:35;;;;;;;7.13;3.80;;;;;;;;;;2082752;28;100052;-21
2021/08/02 09:59:41;;;;;;;4.78;3.65;;;;;;;;;;2074714;28;100009;-22
2021/08/02 10:00:42;;;;;;;4.82;3.78;;;;;;;;;;2083479;27;100028;-22
2021/08/02 10:01:45;;;;;;;4.78;3.38;;;;;;;;;;2082762;28;99964;-22
2021/08/02 10:02:47;;;;;;;5.50;3.28;;;;;;;;;;2074880;28;99875;-23
2021/08/02 10:03:49;;;;;;;5.75;3.70;;;;;;;;;;2083223;27;99960;-21
2021/08/02 10:04:52;;;;;;;5.63;3.53;;;;;;;;;;2091753;27;100001;-21
2021/08/02 10:05:53;;;;;;;4.88;3.78;;;;;;;;;;2091675;27;100078;-24
2021/08/02 10:06:54;;;;;;;4.68;3.70;;;;;;;;;;2083019;28;100006;-20
2021/08/02 10:07:56;;;;;;;5.68;3.85;;;;;;;;;;2066509;28;100076;-22
2021/08/02 10:08:59;;;;;;;4.28;3.22;;;;;;;;;;2074892;27;99973;-22
2021/08/02 10:10:00;;;;;;;4.45;3.58;;;;;;;;;;2090953;27;99869;-22
2021/08/02 10:11:01;;;;;;;;;;;;;;;;;;2092475;27;99984;-25
2021/08/02 10:12:02;;;;;;;5.45;3.38;;;;;;;;;;2091980;27;99948;-25
2021/08/02 10:13:03;;;;;;;4.88;3.92;;;;;;;;;;2087237;27;100034;-22
2021/08/02 10:14:05;;;;;;;6.45;3.30;;;;;;;;;;2083487;28;99955;-21
2021/08/02 10:15:08;;;;;;;6.10;3.45;;;;;;;;;;2083485;27;99964;-21
2021/08/02 10:16:12;;;;;;;3.97;3.35;;;;;;;;;;2083578;28;99939;-21
2021/08/02 10:17:14;;;;;;;4.43;3.70;;;;;;;;;;2082912;28;99976;-22
2021/08/02 10:18:19;;;;;;;5.50;3.75;;;;;;;;;;2074135;28;100002;-24
2021/08/02 10:19:35;;;;;;;5.00;3.95;;;;;;;;;;2083045;27;99874;-20
2021/08/02 10:20:36;;;;;;;4.47;3.60;;;;;;;;;;2091390;27;99931;-21
2021/08/02 10:21:42;;;;;;;4.93;3.40;;;;;;;;;;2091168;27;99868;-23
2021/08/02 10:22:45;;;;;;;4.85;3.42;;;;;;;;;;2073954;28;100011;-23
2021/08/02 10:23:47;;;;;;;4.30;3.50;;;;;;;;;;2075099;27;99846;-20
2021/08/02 10:24:52;;;;;;;4.38;3.33;;;;;;;;;;2082226;28;99972;-23
2021/08/02 10:25:53;;;;;;;5.78;3.40;;;;;;;;;;2073735;28;100015;-23
2021/08/02 10:26:57;;;;;;;;;;;;;;;;;;2082870;27;100117;-20
2021/08/02 10:28:19;;;;;;;5.28;3.50;;;;;;;;;;2091523;27;99903;-20
2021/08/02 10:29:19;;;;;;;;;;;;;;;;;;2091536;27;99857;-19
2021/08/02 10:30:22;;;;;;;6.07;4.20;;;;;;;;;;2091778;27;100146;-23
2021/08/02 10:31:26;;;;;;;4.50;3.35;;;;;;;;;;2091315;27;100184;-23
2021/08/02 10:32:28;;;;;;;5.00;3.92;;;;;;;;;;2082699;28;99868;-21
2021/08/02 10:33:47;;;;;;;4.70;3.60;;;;;;;;;;2065959;28;99923;-23
2021/08/02 10:34:52;;;;;;;4.63;3.60;;;;;;;;;;2070879;28;99864;-22
2021/08/02 10:35:53;;;;;;;5.95;3.50;;;;;;;;;;2082549;27;99921;-21
2021/08/02 10:36:57;;;;;;;;;;;;;;;;;;2091798;27;99923;-22
2021/08/02 10:38:01;;;;;;;7.57;4.25;;;;;;;;;;2091286;27;100131;-20
2021/08/02 10:39:02;;;;;;;4.25;3.63;;;;;;;;;;2091165;27;99926;-19
2021/08/02 10:40:08;;;;;;;;;;;;;;;;;;2091746;27;100213;-23
2021/08/02 10:41:09;;;;;;;4.82;3.63;;;;;;;;;;2091358;27;100089;-20
2021/08/02 10:42:13;;;;;;;5.00;3.50;;;;;;;;;;2089906;27;99986;-23
2021/08/02 10:43:26;;;;;;;5.22;3.85;;;;;;;;;;2090638;27;100049;-22
2021/08/02 10:44:26;;;;;;;5.90;3.47;;;;;;;;;;2090516;27;99881;-25
2021/08/02 10:45:29;;;;;;;;;;;;;;;;;;2090922;27;100029;-23
2021/08/02 10:46:29;;;;;;;8.43;3.63;;;;;;;;;;2089754;27;99885;-22
2021/08/02 10:47:41;;;;;;;4.85;3.53;;;;;;;;;;2090234;27;99967;-20
2021/08/02 10:48:42;;;;;;;;;;;;;;;;;;2091329;27;100011;-22
2021/08/02 10:49:51;;;;;;;7.88;4.30;;;;;;;;;;2090833;27;100052;-25
2021/08/02 10:50:52;;;;;;;11.93;4.30;;;;;;;;;;2088032;27;100118;-20
2021/08/02 10:51:57;;;;;;;5.45;3.95;;;;;;;;;;2090145;27;100052;-21
2021/08/02 10:52:58;;;;;;;7.63;4.05;;;;;;;;;;2090639;27;100385;-20
2021/08/02 10:54:00;;;;;;;;;;;;;;;;;;2091270;27;100436;-20
2021/08/02 10:55:12;;;;;;;7.68;3.72;;;;;;;;;;2090608;27;100098;-23
2021/08/02 10:56:23;;;;;;;4.90;3.60;;;;;;;;;;2089991;27;100297;-22
2021/08/02 10:57:24;;;;;;;8.48;3.97;;;;;;;;;;2090853;27;100333;-21
2021/08/02 10:58:31;;;;;;;7.97;3.83;;;;;;;;;;2090718;27;99880;-24
2021/08/02 10:59:37;;;;;;;8.18;4.40;;;;;;;;;;2073510;28;100097;-24
2021/08/02 11:00:39;;;;;;;4.15;3.75;;;;;;;;;;2074910;27;100025;-23
2021/08/02 11:01:46;;;;;;;7.35;4.07;;;;;;;;;;2091067;27;99938;-21
2021/08/02 11:02:52;;;;;;;5.47;4.20;;;;;;;;;;2090059;27;100071;-19
2021/08/02 11:03:55;;;;;;;6.45;4.43;;;;;;;;;;2090561;27;100028;-24
2021/08/02 11:04:56;;;;;;;10.00;4.78;;;;;;;;;;2090518;27;99971;-23
2021/08/02 11:06:03;;;;;;;11.70;4.65;;;;;;;;;;2081571;28;100031;-23
2021/08/02 11:07:05;;;;;;;9.57;4.97;;;;;;;;;;2074001;28;100340;-22
2021/08/02 11:08:06;;;;;;;7.90;4.25;;;;;;;;;;2073080;28;100123;-20
2021/08/02 11:09:07;;;;;;;;;;;;;;;;;;2082046;28;100512;-24
2021/08/02 11:10:10;;;;;;;8.52;4.30;;;;;;;;;;2081687;28;100069;-22
2021/08/02 11:11:29;;;;;;;7.88;3.75;;;;;;;;;;2073535;28;100153;-22
2021/08/02 11:12:31;;;;;;;7.60;3.80;;;;;;;;;;2084056;27;100011;-21
2021/08/02 11:13:32;;;;;;;5.38;3.63;;;;;;;;;;2081078;28;100192;-21
2021/08/02 11:14:44;;;;;;;5.22;3.80;;;;;;;;;;2073034;28;100108;-21
2021/08/02 11:15:45;;;;;;;5.00;3.70;;;;;;;;;;2071840;28;100100;-23
2021/08/02 11:16:51;;;;;;;6.93;3.97;;;;;;;;;;2065014;28;100121;-21
2021/08/02 11:17:53;;;;;;;6.78;3.88;;;;;;;;;;2080858;27;101442;-22
2021/08/02 11:18:54;;;;;;;4.95;3.72;;;;;;;;;;2089855;27;100480;-21
2021/08/02 11:20:11;;;;;;;4.85;3.60;;;;;;;;;;2090741;27;99947;-21
2021/08/02 11:21:23;;;;;;;6.45;3.67;;;;;;;;;;2080135;28;101619;-24
2021/08/02 11:22:25;;;;;;;6.10;3.25;;;;;;;;;;2074672;28;100437;-20
2021/08/02 11:23:34;;;;;;;5.50;3.65;;;;;;;;;;2081445;27;99887;-22
2021/08/02 11:24:38;;;;;;;5.43;3.70;;;;;;;;;;2090154;27;100103;-21
2021/08/02 11:25:40;;;;;;;10.13;4.07;;;;;;;;;;2081329;28;99995;-21
2021/08/02 11:26:55;;;;;;;5.32;3.60;;;;;;;;;;2064951;28;99996;-20
2021/08/02 11:27:59;;;;;;;4.55;3.65;;;;;;;;;;2077183;27;100321;-21
2021/08/02 11:29:00;;;;;;;4.90;3.72;;;;;;;;;;2090384;27;100068;-22
2021/08/02 11:30:01;;;;;;;;;;;;;;;;;;2090517;27;100005;-23
2021/08/02 11:31:02;;;;;;;8.68;4.40;;;;;;;;;;2073194;28;100081;-24
2021/08/02 11:32:13;;;;;;;5.85;3.97;;;;;;;;;;2075219;27;100266;-21
2021/08/02 11:33:14;;;;;;;5.07;4.25;;;;;;;;;;2078342;28;101762;-20
2021/08/02 11:34:21;;;;;;;6.18;3.90;;;;;;;;;;2072369;28;100115;-20
2021/08/02 11:35:36;;;;;;;5.38;3.97;;;;;;;;;;2073364;28;100375;-20
2021/08/02 11:36:37;;;;;;;4.80;3.72;;;;;;;;;;2074852;28;99955;-22
2021/08/02 11:37:38;;;;;;;;;;;;;;;;;;2081811;27;100076;-23
2021/08/02 11:38:39;;;;;;;7.90;3.53;;;;;;;;;;2090667;27;100007;-24
2021/08/02 11:39:43;;;;;;;6.15;3.90;;;;;;;;;;2081475;28;100086;-21
2021/08/02 11:40:44;;;;;;;6.57;3.47;;;;;;;;;;2073267;28;100234;-24
2021/08/02 11:41:46;;;;;;;;;;;;;;;;;;2081926;27;100311;-25
2021/08/02 11:42:50;;;;;;;8.80;3.78;;;;;;;;;;2081473;28;99952;-20
2021/08/02 11:43:52;;;;;;;5.88;4.20;;;;;;;;;;2073127;28;100249;-20
2021/08/02 11:44:56;;;;;;;7.65;3.70;;;;;;;;;;2081793;27;100067;-23
2021/08/02 11:45:58;;;;;;;6.60;3.70;;;;;;;;;;2088129;27;100228;-23
2021/08/02 11:47:00;;;;;;;5.93;3.60;;;;;;;;;;2090295;27;100105;-20
2021/08/02 11:48:06;;;;;;;6.05;3.72;;;;;;;;;;2081615;28;100024;-20
2021/08/02 11:49:07;;;;;;;11.70;3.60;;;;;;;;;;2082145;27;100218;-21
2021/08/02 11:50:08;;;;;;;;;;;;;;;;;;2090280;27;99994;-24
2021/08/02 11:51:13;;;;;;;6.15;3.45;;;;;;;;;;2090292;27;99889;-22
2021/08/02 11:52:19;;;;;;;7.20;3.92;;;;;;;;;;2089863;27;99973;-23
2021/08/02 11:53:20;;;;;;;7.75;3.92;;;;;;;;;;2090060;27;100023;-23
2021/08/02 11:54:21;;;;;;;;;;;;;;;;;;2090538;27;100102;-22
2021/08/02 11:55:22;;;;;;;;;;;;;;;;;;2090747;27;100069;-22
2021/08/02 11:56:32;;;;;;;6.80;3.60;;;;;;;;;;2089879;27;100249;-24
2021/08/02 11:57:35;;;;;;;7.03;3.53;;;;;;;;;;2090227;27;100077;-21
2021/08/02 11:58:40;;;;;;;7.53;3.33;;;;;;;;;;2080638;28;100612;-23
2021/08/02 11:59:41;;;;;;;4.75;3.50;;;;;;;;;;2081995;27;100071;-23
2021/08/02 12:00:42;;;;;;;;;;;;;;;;;;2080723;28;100094;-22
2021/08/02 12:01:50;;;;;;;3.97;3.50;;;;;;;;;;2081160;28;100118;-23
2021/08/02 12:02:51;;;;;;;6.35;3.80;;;;;;;;;;2089854;27;99987;-20
2021/08/02 12:03:55;;;;;;;6.60;3.95;;;;;;;;;;2090208;27;100043;-21
2021/08/02 12:04:58;;;;;;;8.60;4.00;;;;;;;;;;2080676;28;100036;-20
2021/08/02 12:06:06;;;;;;;6.18;3.40;;;;;;;;;;2081244;28;99994;-22
2021/08/02 12:07:07;;;;;;;4.30;3.45;;;;;;;;;;2082571;27;99903;-21
2021/08/02 12:08:18;;;;;;;8.40;3.58;;;;;;;;;;2081002;28;100234;-21
2021/08/02 12:09:36;;;;;;;7.28;3.38;;;;;;;;;;2082783;27;100018;-25
2021/08/02 12:10:38;;;;;;;6.43;3.55;;;;;;;;;;2081127;28;100042;-20
2021/08/02 12:11:41;;;;;;;6.18;3.60;;;;;;;;;;2080770;27;100252;-21
2021/08/02 12:12:57;;;;;;;7.38;3.58;;;;;;;;;;2089917;27;100138;-20
2021/08/02 12:13:58;;;;;;;11.27;3.85;;;;;;;;;;2089889;27;99930;-22
2021/08/02 12:15:06;;;;;;;;;;;;;;;;;;2090549;27;99985;-20
2021/08/02 12:16:08;;;;;;;6.72;3.75;;;;;;;;;;2080960;28;100138;-21
2021/08/02 12:17:10;;;;;;;5.40;3.40;;;;;;;;;;2081188;27;100051;-24
2021/08/02 12:18:21;;;;;;;5.85;3.90;;;;;;;;;;2090020;27;100137;-23
2021/08/02 12:19:22;;;;;;;6.68;4.00;;;;;;;;;;2089701;27;100133;-20
2021/08/02 12:20:34;;;;;;;8.82;3.58;;;;;;;;;;2090209;27;100072;-24
2021/08/02 12:21:36;;;;;;;7.43;3.88;;;;;;;;;;2089625;27;100108;-22
2021/08/02 12:22:38;;;;;;;6.13;3.60;;;;;;;;;;2090114;27;100309;-21
2021/08/02 12:23:39;;;;;;;6.72;3.47;;;;;;;;;;2089527;27;100040;-23
2021/08/02 12:24:51;;;;;;;6.00;3.80;;;;;;;;;;2080844;28;100065;-20
2021/08/02 12:25:55;;;;;;;6.25;3.70;;;;;;;;;;2082823;27;100129;-22
2021/08/02 12:26:56;;;;;;;6.57;3.45;;;;;;;;;;2090289;27;100444;-23
2021/08/02 12:27:58;;;;;;;4.88;3.55;;;;;;;;;;2090148;27;99928;-24
2021/08/02 12:28:59;;;;;;;7.97;3.25;;;;;;;;;;2090270;27;99968;-24
2021/08/02 12:30:08;;;;;;;;;;;;;;;;;;2073289;28;100279;-23
2021/08/02 12:31:13;;;;;;;4.95;3.25;;;;;;;;;;2074117;28;100025;-20
2021/08/02 12:32:15;;;;;;;6.13;3.47;;;;;;;;;;2086991;27;99882;-21
2021/08/02 12:33:17;;;;;;;6.53;3.38;;;;;;;;;;2080211;28;100033;-23
2021/08/02 12:34:18;;;;;;;;;;;;;;;;;;2080787;27;99973;-24
2021/08/02 12:35:20;;;;;;;6.57;3.47;;;;;;;;;;2081834;27;99894;-22
2021/08/02 12:36:22;;;;;;;5.18;3.45;;;;;;;;;;2081575;27;99972;-23
2021/08/02 12:37:22;;;;;;;9.45;3.70;;;;;;;;;;2081902;27;99974;-22
2021/08/02 12:38:23;;;;;;;7.63;3.30;;;;;;;;;;2082128;27;99970;-23
2021/08/02 12:39:25;;;;;;;;;;;;;;;;;;2081726;28;100129;-20
2021/08/02 12:40:26;;;;;;;7.05;3.63;;;;;;;;;;2081450;28;100383;-21
2021/08/02 12:41:36;;;;;;;6.30;4.05;;;;;;;;;;2081382;28;100002;-21
2021/08/02 12:42:39;;;;;;;8.73;4.10;;;;;;;;;;2080893;27;99907;-23
2021/08/02 12:43:42;;;;;;;12.23;7.68;;;;;;;;;;2082113;28;99953;-21
2021/08/02 12:44:43;;;;;;;63.67;37.10;;;;;;;;;;2081563;27;99963;-25
2021/08/02 12:45:44;;;;;;;;;;;;;;;;;;2082381;28;99946;-23
2021/08/02 12:46:45;;;;;;;76.07;35.33;;;;;;;;;;2064040;28;100101;-25
2021/08/02 12:47:46;;;;;;;;;;;;;;;;;;2064903;28;100065;-24
2021/08/02 12:48:47;;;;;;;61.05;26.30;;;;;;;;;;2081922;28;99952;-24
2021/08/02 12:49:48;;;;;;;;;;;;;;;;;;2082548;27;99866;-21
2021/08/02 12:50:49;;;;;;;66.00;27.52;;;;;;;;;;2080770;28;99992;-20
2021/08/02 12:51:50;;;;;;;;;;;;;;;;;;2081676;28;100062;-21
2021/08/02 12:52:51;;;;;;;55.95;25.45;;;;;;;;;;2081664;27;99946;-23
2021/08/02 12:53:53;;;;;;;53.95;24.48;;;;;;;;;;2081755;27;100004;-23
2021/08/02 12:54:57;;;;;;;43.13;19.58;;;;;;;;;;2080921;28;99946;-21
2021/08/02 12:55:58;;;;;;;38.70;16.35;;;;;;;;;;2076654;28;100073;-19
2021/08/02 12:56:59;;;;;;;36.95;14.35;;;;;;;;;;2072534;28;100016;-19
2021/08/02 12:58:00;;;;;;;30.98;14.63;;;;;;;;;;2081008;28;99868;-20
2021/08/02 12:59:01;;;;;;;27.38;11.73;;;;;;;;;;2081125;28;99967;-23
2021/08/02 13:00:03;;;;;;;26.23;12.00;;;;;;;;;;2081766;28;99956;-20
2021/08/02 13:01:08;;;;;;;23.23;11.63;;;;;;;;;;2081003;27;100104;-23
2021/08/02 13:02:09;;;;;;;19.90;10.95;;;;;;;;;;2073246;28;99877;-24
2021/08/02 13:03:11;;;;;;;19.63;11.13;;;;;;;;;;2072713;28;100378;-20
2021/08/02 13:04:11;;;;;;;23.77;11.18;;;;;;;;;;2073077;28;100015;-22
2021/08/02 13:05:12;;;;;;;;;;;;;;;;;;2073819;28;100003;-23
2021/08/02 13:06:14;;;;;;;24.65;11.05;;;;;;;;;;2073714;28;99990;-22
2021/08/02 13:07:15;;;;;;;23.20;10.90;;;;;;;;;;2073417;28;99994;-21
2021/08/02 13:08:16;;;;;;;;;;;;;;;;;;2073387;28;100072;-23
2021/08/02 13:09:16;;;;;;;26.40;10.57;;;;;;;;;;2064471;28;100064;-21
2021/08/02 13:10:17;;;;;;;;;;;;;;;;;;2073931;28;99868;-20
2021/08/02 13:11:21;;;;;;;21.95;10.55;;;;;;;;;;2074735;28;99905;-22
2021/08/02 13:12:23;;;;;;;23.25;10.90;;;;;;;;;;2065650;28;100039;-24
2021/08/02 13:13:24;;;;;;;20.30;10.85;;;;;;;;;;2067267;28;100015;-21
2021/08/02 13:14:25;;;;;;;;;;;;;;;;;;2074645;28;100172;-21
2021/08/02 13:15:26;;;;;;;25.63;11.65;;;;;;;;;;2074044;28;99998;-20
2021/08/02 13:16:27;;;;;;;24.08;11.55;;;;;;;;;;2083057;28;99917;-23
2021/08/02 13:17:28;;;;;;;20.17;10.07;;;;;;;;;;2083242;28;99923;-22
2021/08/02 13:18:29;;;;;;;19.17;10.20;;;;;;;;;;2083209;27;99980;-21
2021/08/02 13:19:30;;;;;;;;;;;;;;;;;;2066134;28;99956;-20
2021/08/02 13:20:31;;;;;;;23.70;10.30;;;;;;;;;;2065963;28;100228;-20
2021/08/02 13:21:32;;;;;;;22.52;10.25;;;;;;;;;;2082315;28;100719;-19
2021/08/02 13:23:28;;;;;;;;;;;;;;;;;;2082935;28;100332;-23
2021/08/02 13:27:56;;;;;;;24.27;11.27;;;;;;;;;;2082109;28;100008;-21
2021/08/02 13:28:57;;;;;;;21.63;10.50;;;;;;;;;;2082429;27;100057;-24
2021/08/02 13:29:58;;;;;;;;;;;;;;;;;;2082994;27;99937;-22
2021/08/02 13:30:59;;;;;;;20.15;10.35;;;;;;;;;;2083155;27;99957;-22
2021/08/02 13:32:03;;;;;;;22.10;10.07;;;;;;;;;;2082102;28;100366;-22
2021/08/02 13:33:04;;;;;;;17.70;9.77;;;;;;;;;;2082053;28;100123;-23
2021/08/02 13:34:05;;;;;;;18.77;9.80;;;;;;;;;;2085670;27;99988;-20
2021/08/02 13:35:08;;;;;;;;;;;;;;;;;;2074136;28;100209;-21
2021/08/02 13:36:09;;;;;;;21.20;10.07;;;;;;;;;;2074222;28;100279;-20
2021/08/02 13:37:12;;;;;;;24.52;10.07;;;;;;;;;;2089389;27;99912;-20
2021/08/02 13:38:12;;;;;;;25.00;10.32;;;;;;;;;;2091110;27;99962;-21
2021/08/02 13:39:13;;;;;;;;;;;;;;;;;;2091123;27;100057;-20
2021/08/02 13:40:14;;;;;;;20.83;9.57;;;;;;;;;;2091177;27;99957;-21
2021/08/02 13:41:15;;;;;;;;;;;;;;;;;;2082551;28;100261;-25
2021/08/02 13:42:16;;;;;;;27.27;10.82;;;;;;;;;;2081771;27;100024;-25
2021/08/02 13:43:17;;;;;;;;;;;;;;;;;;2082455;28;100173;-23
2021/08/02 13:44:18;;;;;;;;;;;;;;;;;;2082549;28;100213;-23
2021/08/02 13:45:19;;;;;;;;;;;;;;;;;;2091329;27;100067;-21
2021/08/02 13:46:21;;;;;;;;;;;;;;;;;;2082689;28;100084;-23
2021/08/02 13:47:21;;;;;;;;;;;;;;;;;;2082487;27;100283;-21
2021/08/02 13:48:23;;;;;;;;;;;;;;;;;;2091804;27;100052;-20
2021/08/02 13:49:26;;;;;;;;;;;;;;;;;;2091636;27;100118;-25
2021/08/02 13:50:26;;;;;;;;;;;;;;;;;;2073846;28;100068;-25
2021/08/02 13:51:28;;;;;;;;;;;;;;;;;;2074126;28;100142;-21
2021/08/02 13:52:28;;;;;;;;;;;;;;;;;;2091620;27;100591;-22
2021/08/02 13:53:29;;;;;;;;;;;;;;;;;;2091503;27;99929;-23
2021/08/02 13:54:30;;;;;;;;;;;;;;;;;;2091670;27;99917;-22
2021/08/02 13:55:34;;;;;;;;;;;;;;;;;;2091361;27;100016;-22
2021/08/02 13:56:35;;;;;;;;;;;;;;;;;;2092022;27;100070;-21
2021/08/02 13:57:37;;;;;;;;;;;;;;;;;;2091682;27;100049;-23
2021/08/02 13:58:38;;;;;;;;;;;;;;;;;;2091912;27;99810;-21
2021/08/02 13:59:41;;;;;;;;;;;;;;;;;;2091550;27;100026;-20
2021/08/02 14:00:42;;;;;;;;;;;;;;;;;;2092070;27;100009;-23
2021/08/02 14:01:43;;;;;;;;;;;;;;;;;;2091427;27;99928;-22
2021/08/02 14:02:44;;;;;;;;;;;;;;;;;;2091995;27;99906;-20
2021/08/02 14:03:45;;;;;;;;;;;;;;;;;;2091782;27;99989;-22
2021/08/02 14:04:46;;;;;;;;;;;;;;;;;;2092191;27;99980;-21
2021/08/02 14:05:47;;;;;;;;;;;;;;;;;;2091555;27;99881;-21
2021/08/02 14:06:48;;;;;;;;;;;;;;;;;;2091998;27;99892;-21
2021/08/02 14:07:48;;;;;;;;;;;;;;;;;;2091612;27;99853;-22
2021/08/02 14:08:49;;;;;;;;;;;;;;;;;;2091905;27;99861;-22
2021/08/02 14:09:53;;;;;;;;;;;;;;;;;;2091476;27;100053;-22
2021/08/02 14:10:55;;;;;;;;;;;;;;;;;;2082473;28;101378;-21
2021/08/02 14:11:59;;;;;;;;;;;;;;;;;;2082727;27;99880;-22
2021/08/02 14:13:02;;;;;;;;;;;;;;;;;;2091507;27;99975;-21
2021/08/02 14:14:03;;;;;;;;;;;;;;;;;;2091572;27;100489;-24
2021/08/02 14:15:05;;;;;;;;;;;;;;;;;;2082765;28;100372;-22
2021/08/02 14:16:07;;;;;;;;;;;;;;;;;;2073863;28;100021;-22
2021/08/02 14:17:12;;;;;;;;;;;;;;;;;;2082371;28;100060;-23
2021/08/02 14:18:12;;;;;;;;;;;;;;;;;;2091175;27;100067;-20
2021/08/02 14:19:14;;;;;;;;;;;;;;;;;;2091761;27;99937;-24
2021/08/02 14:20:19;;;;;;;;;;;;;;;;;;2091390;27;100021;-22
2021/08/02 14:21:20;;;;;;;;;;;;;;;;;;2090971;27;100053;-21
2021/08/02 14:22:21;;;;;;;;;;;;;;;;;;2091645;27;99800;-23
2021/08/02 14:23:23;;;;;;;;;;;;;;;;;;2091269;27;100110;-25
2021/08/02 14:24:25;;;;;;;;;;;;;;;;;;2091741;27;100140;-22
2021/08/02 14:25:26;;;;;;;;;;;;;;;;;;2091732;27;100174;-22
2021/08/02 14:26:28;;;;;;;;;;;;;;;;;;2091412;27;100000;-21
2021/08/02 14:27:30;;;;;;;;;;;;;;;;;;2091545;27;100140;-21
2021/08/02 14:28:31;;;;;;;;;;;;;;;;;;2073822;28;100051;-21
2021/08/02 14:29:32;;;;;;;;;;;;;;;;;;2074157;27;100321;-22
2021/08/02 14:30:33;;;;;;;;;;;;;;;;;;2091491;27;100001;-19
2021/08/02 14:31:35;;;;;;;;;;;;;;;;;;2091667;27;100122;-24
2021/08/02 14:32:40;;;;;;;;;;;;;;;;;;2090953;27;100099;-21
2021/08/02 14:33:42;;;;;;;;;;;;;;;;;;2091058;27;100164;-23
2021/08/02 14:34:43;;;;;;;;;;;;;;;;;;2073733;28;100166;-23
2021/08/02 14:35:44;;;;;;;;;;;;;;;;;;2065558;28;100040;-24
2021/08/02 14:36:46;;;;;;;;;;;;;;;;;;2057306;28;100084;-21
2021/08/02 14:37:48;;;;;;;;;;;;;;;;;;2065483;28;100045;-23
2021/08/02 14:38:49;;;;;;;;;;;;;;;;;;2073595;28;100310;-19
2021/08/02 14:39:55;;;;;;;;;;;;;;;;;;2073730;28;100037;-19
2021/08/02 14:40:56;;;;;;;;;;;;;;;;;;2073772;28;100294;-21
2021/08/02 14:41:58;;;;;;;;;;;;;;;;;;2074053;28;99989;-22
2021/08/02 14:43:01;;;;;;;;;;;;;;;;;;2072395;28;100103;-22
2021/08/02 14:44:03;;;;;;;;;;;;;;;;;;2064888;28;100112;-21
2021/08/02 14:45:05;;;;;;;;;;;;;;;;;;2064079;28;100172;-23
2021/08/02 14:46:07;;;;;;;;;;;;;;;;;;2064363;28;100083;-23
2021/08/02 14:47:09;;;;;;;;;;;;;;;;;;2072380;28;100001;-22
2021/08/02 14:48:13;;;;;;;;;;;;;;;;;;2073072;28;99946;-21
2021/08/02 14:49:14;;;;;;;;;;;;;;;;;;2057336;28;100026;-21
2021/08/02 14:50:15;;;;;;;;;;;;;;;;;;2065979;28;100042;-23
2021/08/02 14:51:28;;;;;;;;;;;;;;;;;;2064891;28;99947;-20
2021/08/02 14:52:32;;;;;;;;;;;;;;;;;;2066419;28;100538;-21
2021/08/02 14:53:33;;;;;;;;;;;;;;;;;;2073031;28;100051;-23
2021/08/02 14:54:34;;;;;;;;;;;;;;;;;;2073099;28;100023;-22
2021/08/02 14:55:36;;;;;;;;;;;;;;;;;;2069458;28;100268;-23
2021/08/02 14:56:36;;;;;;;;;;;;;;;;;;2072858;28;100051;-21
2021/08/02 14:57:40;;;;;;;;;;;;;;;;;;2072710;28;99902;-22
2021/08/02 14:58:41;;;;;;;;;;;;;;;;;;2071708;28;100022;-20
2021/08/02 14:59:43;;;;;;;;;;;;;;;;;;2073200;28;100106;-20
2021/08/02 15:00:44;;;;;;;;;;;;;;;;;;2073713;28;100298;-21
2021/08/02 15:01:45;;;;;;;;;;;;;;;;;;2071428;28;101957;-21
2021/08/02 15:02:47;;;;;;;;;;;;;;;;;;2072437;28;99998;-22
2021/08/02 15:03:48;;;;;;;;;;;;;;;;;;2072372;28;100023;-22
2021/08/02 15:04:49;;;;;;;;;;;;;;;;;;2064198;28;100023;-23
2021/08/02 15:05:51;;;;;;;;;;;;;;;;;;2063852;28;100119;-20
2021/08/02 15:06:55;;;;;;;;;;;;;;;;;;2072209;28;100264;-21
2021/08/02 15:07:56;;;;;;;;;;;;;;;;;;2071327;28;100060;-22
2021/08/02 15:09:04;;;;;;;;;;;;;;;;;;2073552;28;100057;-22